sensor_id;sensor_type;location;lat;lon;timestamp;pressure;altitude;pressure_sealevel;temperature;humidity
46598;BME280;32318;48.858;8.252;2022-10-16T00:03:55;100081.50;;;15.60;89.23
46598;BME280;32318;48.858;8.252;2022-10-16T00:11:56;100070.75;;;15.60;89.57
46598;BME280;32318;48.858;8.252;2022-10-16T00:19:56;100059.13;;;15.59;89.59
46598;BME280;32318;48.858;8.252;2022-10-16T00:27:57;100064.31;;;15.61;89.55
46598;BME280;32318;48.858;8.252;2022-10-16T00:35:58;100056.44;;;15.59;89.84
46598;BME280;32318;48.858;8.252;2022-10-16T00:44:01;100062.25;;;15.56;90.25
46598;BME280;32318;48.858;8.252;2022-10-16T00:52:02;100083.97;;;15.55;90.43
46598;BME280;32318;48.858;8.252;2022-10-16T01:00:04;100091.00;;;15.56;90.53
46598;BME280;32318;48.858;8.252;2022-10-16T01:08:29;100076.72;;;15.55;90.74
46598;BME280;32318;48.858;8.252;2022-10-16T01:16:45;100089.34;;;15.55;90.60
46598;BME280;32318;48.858;8.252;2022-10-16T01:24:49;100099.06;;;15.56;90.72
46598;BME280;32318;48.858;8.252;2022-10-16T01:32:58;100099.72;;;15.58;91.02
46598;BME280;32318;48.858;8.252;2022-10-16T01:41:06;100081.88;;;15.50;90.81
46598;BME280;32318;48.858;8.252;2022-10-16T01:49:09;100071.09;;;15.50;91.24
46598;BME280;32318;48.858;8.252;2022-10-16T01:57:12;100071.72;;;15.45;91.00
46598;BME280;32318;48.858;8.252;2022-10-16T02:05:20;100080.41;;;15.47;91.05
46598;BME280;32318;48.858;8.252;2022-10-16T02:13:27;100088.91;;;15.51;90.96
46598;BME280;32318;48.858;8.252;2022-10-16T02:21:34;100096.34;;;15.49;90.93
46598;BME280;32318;48.858;8.252;2022-10-16T02:29:42;100093.88;;;15.47;90.75
46598;BME280;32318;48.858;8.252;2022-10-16T02:37:45;100098.00;;;15.43;91.10
46598;BME280;32318;48.858;8.252;2022-10-16T02:45:46;100098.19;;;15.42;90.89
46598;BME280;32318;48.858;8.252;2022-10-16T02:53:46;100101.28;;;15.39;90.89
46598;BME280;32318;48.858;8.252;2022-10-16T03:01:46;100100.44;;;15.38;90.92
46598;BME280;32318;48.858;8.252;2022-10-16T03:09:47;100117.81;;;15.35;91.20
46598;BME280;32318;48.858;8.252;2022-10-16T03:17:47;100113.84;;;15.31;90.97
46598;BME280;32318;48.858;8.252;2022-10-16T03:25:48;100112.41;;;15.29;91.16
46598;BME280;32318;48.858;8.252;2022-10-16T03:33:48;100121.47;;;15.28;91.41
46598;BME280;32318;48.858;8.252;2022-10-16T03:41:48;100121.09;;;15.31;91.31
46598;BME280;32318;48.858;8.252;2022-10-16T03:49:49;100121.09;;;15.31;91.28
46598;BME280;32318;48.858;8.252;2022-10-16T03:57:49;100111.38;;;15.30;91.41
46598;BME280;32318;48.858;8.252;2022-10-16T04:05:50;100113.84;;;15.31;91.22
46598;BME280;32318;48.858;8.252;2022-10-16T04:13:50;100128.53;;;15.29;91.07
46598;BME280;32318;48.858;8.252;2022-10-16T04:21:50;100139.28;;;15.29;91.15
46598;BME280;32318;48.858;8.252;2022-10-16T04:29:51;100148.00;;;15.31;91.32
46598;BME280;32318;48.858;8.252;2022-10-16T04:37:51;100151.72;;;15.30;91.57
46598;BME280;32318;48.858;8.252;2022-10-16T04:45:51;100147.34;;;15.29;91.48
46598;BME280;32318;48.858;8.252;2022-10-16T04:53:52;100159.13;;;15.28;91.60
46598;BME280;32318;48.858;8.252;2022-10-16T05:01:52;100163.50;;;15.29;91.70
46598;BME280;32318;48.858;8.252;2022-10-16T05:09:52;100174.47;;;15.27;91.50
46598;BME280;32318;48.858;8.252;2022-10-16T05:17:53;100177.16;;;15.27;91.63
46598;BME280;32318;48.858;8.252;2022-10-16T05:25:55;100187.69;;;15.29;91.91
46598;BME280;32318;48.858;8.252;2022-10-16T05:33:59;100180.22;;;15.24;91.75
46598;BME280;32318;48.858;8.252;2022-10-16T05:41:59;100174.03;;;15.24;91.70
46598;BME280;32318;48.858;8.252;2022-10-16T05:50:00;100169.66;;;15.23;91.59
46598;BME280;32318;48.858;8.252;2022-10-16T05:58:00;100186.19;;;15.19;91.63
46598;BME280;32318;48.858;8.252;2022-10-16T06:06:08;100209.75;;;15.17;91.71
46598;BME280;32318;48.858;8.252;2022-10-16T06:14:09;100201.88;;;15.16;91.71
46598;BME280;32318;48.858;8.252;2022-10-16T06:22:09;100202.75;;;15.16;91.83
46598;BME280;32318;48.858;8.252;2022-10-16T06:30:10;100213.94;;;15.20;91.70
46598;BME280;32318;48.858;8.252;2022-10-16T06:38:10;100219.94;;;15.22;91.58
46598;BME280;32318;48.858;8.252;2022-10-16T06:46:12;100224.09;;;15.25;91.77
46598;BME280;32318;48.858;8.252;2022-10-16T06:54:15;100227.41;;;15.27;91.46
46598;BME280;32318;48.858;8.252;2022-10-16T07:02:15;100238.59;;;15.30;91.34
46598;BME280;32318;48.858;8.252;2022-10-16T07:10:15;100254.44;;;15.40;91.14
46598;BME280;32318;48.858;8.252;2022-10-16T07:18:15;100246.84;;;15.50;90.27
46598;BME280;32318;48.858;8.252;2022-10-16T07:26:16;100271.53;;;15.61;90.19
46598;BME280;32318;48.858;8.252;2022-10-16T07:34:18;100276.78;;;15.69;89.84
46598;BME280;32318;48.858;8.252;2022-10-16T07:42:18;100289.50;;;15.82;89.74
46598;BME280;32318;48.858;8.252;2022-10-16T07:50:20;100303.25;;;15.94;89.68
46598;BME280;32318;48.858;8.252;2022-10-16T07:58:20;100323.63;;;16.03;89.69
46598;BME280;32318;48.858;8.252;2022-10-16T08:06:21;100323.28;;;16.20;89.80
46598;BME280;32318;48.858;8.252;2022-10-16T08:14:22;100317.97;;;16.33;89.25
46598;BME280;32318;48.858;8.252;2022-10-16T08:22:22;100310.72;;;16.40;88.33
46598;BME280;32318;48.858;8.252;2022-10-16T08:30:23;100313.84;;;16.44;88.04
46598;BME280;32318;48.858;8.252;2022-10-16T08:38:24;100328.22;;;16.58;87.85
46598;BME280;32318;48.858;8.252;2022-10-16T08:54:44;100344.09;;;16.88;86.56
46598;BME280;32318;48.858;8.252;2022-10-16T09:11:29;100379.84;;;17.17;85.89
46598;BME280;32318;48.858;8.252;2022-10-16T09:19:41;100383.44;;;17.37;85.06
46598;BME280;32318;48.858;8.252;2022-10-16T09:27:46;100388.44;;;17.54;84.47
46598;BME280;32318;48.858;8.252;2022-10-16T09:35:51;100405.06;;;17.64;83.22
46598;BME280;32318;48.858;8.252;2022-10-16T09:44:02;100412.94;;;17.72;83.20
46598;BME280;32318;48.858;8.252;2022-10-16T09:52:14;100421.25;;;17.78;83.15
46598;BME280;32318;48.858;8.252;2022-10-16T10:00:16;100427.50;;;17.85;83.36
46598;BME280;32318;48.858;8.252;2022-10-16T10:08:18;100424.59;;;18.00;83.07
46598;BME280;32318;48.858;8.252;2022-10-16T10:16:24;100433.34;;;18.09;82.50
46598;BME280;32318;48.858;8.252;2022-10-16T10:24:24;100444.75;;;18.17;81.87
46598;BME280;32318;48.858;8.252;2022-10-16T10:32:36;100438.31;;;18.25;81.71
46598;BME280;32318;48.858;8.252;2022-10-16T10:41:00;100434.69;;;18.58;80.78
46598;BME280;32318;48.858;8.252;2022-10-16T10:57:27;100447.63;;;19.15;78.81
46598;BME280;32318;48.858;8.252;2022-10-16T11:06:24;100443.97;;;19.35;76.58
46598;BME280;32318;48.858;8.252;2022-10-16T11:14:31;100436.53;;;19.62;78.59
46598;BME280;32318;48.858;8.252;2022-10-16T11:22:38;100425.53;;;19.82;76.50
46598;BME280;32318;48.858;8.252;2022-10-16T11:30:50;100414.22;;;19.92;75.01
46598;BME280;32318;48.858;8.252;2022-10-16T11:47:02;100415.25;;;20.16;74.98
46598;BME280;32318;48.858;8.252;2022-10-16T11:55:40;100422.03;;;20.26;73.11
46598;BME280;32318;48.858;8.252;2022-10-16T12:04:05;100412.38;;;20.30;72.43
46598;BME280;32318;48.858;8.252;2022-10-16T12:12:25;100407.50;;;20.38;72.29
46598;BME280;32318;48.858;8.252;2022-10-16T12:20:29;100410.00;;;20.40;73.94
46598;BME280;32318;48.858;8.252;2022-10-16T12:28:32;100404.13;;;20.43;74.64
46598;BME280;32318;48.858;8.252;2022-10-16T12:36:34;100398.41;;;20.51;75.00
46598;BME280;32318;48.858;8.252;2022-10-16T12:44:35;100399.75;;;20.61;74.96
46598;BME280;32318;48.858;8.252;2022-10-16T12:52:38;100409.56;;;20.62;74.93
46598;BME280;32318;48.858;8.252;2022-10-16T13:00:44;100403.44;;;20.48;73.77
46598;BME280;32318;48.858;8.252;2022-10-16T13:09:19;100406.22;;;20.41;72.07
46598;BME280;32318;48.858;8.252;2022-10-16T13:33:51;100398.41;;;20.33;76.11
46598;BME280;32318;48.858;8.252;2022-10-16T13:42:10;100400.59;;;20.24;76.09
46598;BME280;32318;48.858;8.252;2022-10-16T13:50:17;100398.13;;;20.16;76.92
46598;BME280;32318;48.858;8.252;2022-10-16T13:58:18;100401.94;;;20.15;76.93
46598;BME280;32318;48.858;8.252;2022-10-16T14:06:20;100401.91;;;20.33;75.90
46598;BME280;32318;48.858;8.252;2022-10-16T14:14:24;100403.97;;;20.57;74.37
46598;BME280;32318;48.858;8.252;2022-10-16T14:30:32;100389.81;;;20.55;73.47
46598;BME280;32318;48.858;8.252;2022-10-16T14:38:33;100398.41;;;20.70;73.15
46598;BME280;32318;48.858;8.252;2022-10-16T14:46:38;100393.41;;;20.67;72.89
46598;BME280;32318;48.858;8.252;2022-10-16T14:54:40;100390.56;;;20.62;73.49
46598;BME280;32318;48.858;8.252;2022-10-16T15:02:41;100390.63;;;20.55;73.74
46598;BME280;32318;48.858;8.252;2022-10-16T15:10:43;100388.91;;;20.61;73.42
46598;BME280;32318;48.858;8.252;2022-10-16T15:18:44;100388.34;;;20.71;72.71
46598;BME280;32318;48.858;8.252;2022-10-16T15:26:44;100400.06;;;20.71;73.16
46598;BME280;32318;48.858;8.252;2022-10-16T15:34:54;100391.38;;;20.62;73.43
46598;BME280;32318;48.858;8.252;2022-10-16T15:42:55;100382.13;;;20.51;73.78
46598;BME280;32318;48.858;8.252;2022-10-16T15:50:56;100389.53;;;20.44;74.32
46598;BME280;32318;48.858;8.252;2022-10-16T16:07:57;100416.00;;;20.24;75.09
46598;BME280;32318;48.858;8.252;2022-10-16T16:15:57;100404.75;;;20.01;75.65
46598;BME280;32318;48.858;8.252;2022-10-16T16:23:58;100411.13;;;19.82;76.49
46598;BME280;32318;48.858;8.252;2022-10-16T16:31:59;100412.34;;;19.60;77.00
46598;BME280;32318;48.858;8.252;2022-10-16T16:39:59;100410.44;;;19.36;77.89
46598;BME280;32318;48.858;8.252;2022-10-16T16:47:59;100410.06;;;19.25;78.25
46598;BME280;32318;48.858;8.252;2022-10-16T16:56:04;100415.66;;;18.92;79.44
46598;BME280;32318;48.858;8.252;2022-10-16T17:04:05;100419.69;;;18.69;80.07
46598;BME280;32318;48.858;8.252;2022-10-16T17:12:05;100418.53;;;18.45;80.83
46598;BME280;32318;48.858;8.252;2022-10-16T17:20:06;100435.78;;;18.30;81.77
46598;BME280;32318;48.858;8.252;2022-10-16T17:28:10;100447.44;;;18.17;82.23
46598;BME280;32318;48.858;8.252;2022-10-16T17:36:11;100454.31;;;18.07;83.39
46598;BME280;32318;48.858;8.252;2022-10-16T17:44:13;100456.59;;;17.96;83.62
46598;BME280;32318;48.858;8.252;2022-10-16T17:52:19;100449.50;;;17.82;83.62
46598;BME280;32318;48.858;8.252;2022-10-16T18:00:19;100460.13;;;17.77;83.53
46598;BME280;32318;48.858;8.252;2022-10-16T18:08:19;100469.84;;;17.64;83.69
46598;BME280;32318;48.858;8.252;2022-10-16T18:16:20;100476.25;;;17.56;83.26
46598;BME280;32318;48.858;8.252;2022-10-16T18:24:21;100481.25;;;17.46;83.97
46598;BME280;32318;48.858;8.252;2022-10-16T18:32:27;100486.38;;;17.34;84.24
46598;BME280;32318;48.858;8.252;2022-10-16T18:40:28;100493.63;;;17.27;84.25
46598;BME280;32318;48.858;8.252;2022-10-16T18:48:29;100495.25;;;17.15;84.58
46598;BME280;32318;48.858;8.252;2022-10-16T18:56:30;100497.06;;;17.01;84.60
46598;BME280;32318;48.858;8.252;2022-10-16T19:04:31;100499.50;;;16.96;84.63
46598;BME280;32318;48.858;8.252;2022-10-16T19:12:31;100512.81;;;16.97;83.27
46598;BME280;32318;48.858;8.252;2022-10-16T19:20:31;100526.53;;;17.02;82.48
46598;BME280;32318;48.858;8.252;2022-10-16T19:28:32;100534.22;;;17.05;81.94
46598;BME280;32318;48.858;8.252;2022-10-16T19:36:34;100546.00;;;16.98;83.75
46598;BME280;32318;48.858;8.252;2022-10-16T19:44:35;100554.19;;;16.83;84.90
46598;BME280;32318;48.858;8.252;2022-10-16T19:52:35;100557.22;;;16.73;85.75
46598;BME280;32318;48.858;8.252;2022-10-16T20:00:40;100571.06;;;16.63;86.22
46598;BME280;32318;48.858;8.252;2022-10-16T20:08:42;100572.63;;;16.51;86.48
46598;BME280;32318;48.858;8.252;2022-10-16T20:16:43;100583.75;;;16.41;86.84
46598;BME280;32318;48.858;8.252;2022-10-16T20:24:44;100595.63;;;16.25;87.20
46598;BME280;32318;48.858;8.252;2022-10-16T20:32:44;100608.41;;;16.16;87.71
46598;BME280;32318;48.858;8.252;2022-10-16T20:40:46;100620.75;;;16.10;87.73
46598;BME280;32318;48.858;8.252;2022-10-16T20:48:47;100623.00;;;16.07;87.52
46598;BME280;32318;48.858;8.252;2022-10-16T20:56:48;100634.34;;;16.02;87.32
46598;BME280;32318;48.858;8.252;2022-10-16T21:04:48;100637.97;;;15.94;87.24
46598;BME280;32318;48.858;8.252;2022-10-16T21:12:53;100647.06;;;15.78;87.47
46598;BME280;32318;48.858;8.252;2022-10-16T21:20:56;100651.19;;;15.74;87.82
46598;BME280;32318;48.858;8.252;2022-10-16T21:29:02;100652.84;;;15.75;87.61
46598;BME280;32318;48.858;8.252;2022-10-16T21:37:02;100648.03;;;15.71;87.78
46598;BME280;32318;48.858;8.252;2022-10-16T21:45:06;100647.28;;;15.62;87.34
46598;BME280;32318;48.858;8.252;2022-10-16T21:53:09;100645.34;;;15.56;87.33
46598;BME280;32318;48.858;8.252;2022-10-16T22:01:13;100647.78;;;15.50;87.68
46598;BME280;32318;48.858;8.252;2022-10-16T22:09:31;100656.41;;;15.46;87.29
46598;BME280;32318;48.858;8.252;2022-10-16T22:17:34;100667.06;;;15.39;87.17
46598;BME280;32318;48.858;8.252;2022-10-16T22:25:50;100667.63;;;15.34;87.09
46598;BME280;32318;48.858;8.252;2022-10-16T22:33:59;100670.22;;;15.28;86.77
46598;BME280;32318;48.858;8.252;2022-10-16T22:42:00;100673.38;;;15.31;86.27
46598;BME280;32318;48.858;8.252;2022-10-16T22:50:02;100678.28;;;15.28;86.13
46598;BME280;32318;48.858;8.252;2022-10-16T22:58:03;100679.69;;;15.24;86.01
46598;BME280;32318;48.858;8.252;2022-10-16T23:06:03;100685.06;;;15.24;85.85
46598;BME280;32318;48.858;8.252;2022-10-16T23:14:04;100691.47;;;15.23;85.49
46598;BME280;32318;48.858;8.252;2022-10-16T23:22:05;100696.19;;;15.20;85.74
46598;BME280;32318;48.858;8.252;2022-10-16T23:30:05;100705.00;;;15.14;85.56
46598;BME280;32318;48.858;8.252;2022-10-16T23:38:08;100713.81;;;15.08;85.89
46598;BME280;32318;48.858;8.252;2022-10-16T23:46:09;100713.22;;;14.98;85.92
46598;BME280;32318;48.858;8.252;2022-10-16T23:54:10;100713.56;;;14.95;86.03
